Holiday City, Ohio
Current Conditions -  °F | °C
As of 12:15 PM on Thursday 18 Dec 2014 (Local Time) from KJYM Reporting Station
Haze Haze  
Wind Chill: 21°   Ceiling: 1200
Heat Index: 30°   Visibility: 4mi
Dew Point: 27°   Wind: 9mph
Humidity: 90%   Direction: 260°W
Pressure: 30.19"   Gusts: NA
Location:  41.6146°N, 84.6314°W
Report Text: KJYM 181715Z AUTO 26008KT 4SM BR OVC012 M01/M03 A3019 RMK AO2 T10131028
Loading
Personal Weather Stations






























Interactive Weather Map New forecast layout! Learn more

10-Day Weather Forecast

Advertisements
Track Severe Weather on mobile